createdAt,value
2017-08-09T00:00:52.225Z,94.07
2017-08-09T00:01:52.203Z,94.07
2017-08-09T00:02:52.180Z,94.07
2017-08-09T00:03:52.154Z,93.6
2017-08-09T00:04:52.137Z,93.31
2017-08-09T00:05:52.108Z,93.5
2017-08-09T00:06:52.088Z,93.5
2017-08-09T00:07:52.063Z,93.69
2017-08-09T00:08:52.038Z,93.21
2017-08-09T00:09:52.021Z,93.02
2017-08-09T00:10:51.993Z,93.02
2017-08-09T00:11:51.971Z,93.02
2017-08-09T00:12:51.948Z,92.93
2017-08-09T00:13:51.929Z,92.74
2017-08-09T00:14:51.913Z,93.21
2017-08-09T00:15:51.878Z,93.21
2017-08-09T00:16:51.860Z,92.54
2017-08-09T00:17:51.848Z,92.83
2017-08-09T00:18:51.814Z,92.83
2017-08-09T00:19:51.788Z,93.02
2017-08-09T00:20:51.771Z,92.97
2017-08-09T00:21:51.746Z,92.88
2017-08-09T00:22:51.721Z,92.69
2017-08-09T00:23:51.700Z,92.11
2017-08-09T00:24:51.677Z,92.4
2017-08-09T00:25:51.369Z,92.21
2017-08-09T00:26:51.336Z,92.59
2017-08-09T00:27:51.605Z,92.4
2017-08-09T00:28:51.587Z,92.02
2017-08-09T00:29:51.564Z,92.4
2017-08-09T00:30:51.538Z,92.21
2017-08-09T00:31:51.229Z,92.21
2017-08-09T00:32:51.498Z,92.02
2017-08-09T00:33:51.473Z,92.3
2017-08-09T00:34:51.453Z,92.4
2017-08-09T00:35:51.427Z,92.3
2017-08-09T00:36:51.406Z,92.4
2017-08-09T00:37:51.087Z,92.3
2017-08-09T00:38:51.364Z,91.73
2017-08-09T00:39:51.340Z,91.73
2017-08-09T00:40:51.317Z,91.92
2017-08-09T00:41:51.294Z,92.59
2017-08-09T00:42:51.274Z,92.3
2017-08-09T00:43:51.256Z,92.3
2017-08-09T00:44:51.228Z,92.02
2017-08-09T00:45:51.206Z,92.11
2017-08-09T00:46:50.886Z,92.11
2017-08-09T00:47:51.166Z,91.92
2017-08-09T00:48:51.137Z,92.11
2017-08-09T00:49:51.122Z,92.11
2017-08-09T00:50:51.099Z,92.02
2017-08-09T00:51:51.070Z,92.11
2017-08-09T00:52:51.050Z,92.02
2017-08-09T00:53:51.027Z,91.92
2017-08-09T00:54:51.003Z,92.69
2017-08-09T00:55:50.983Z,92.59
2017-08-09T00:56:50.958Z,92.4
2017-08-09T00:57:50.939Z,92.4
2017-08-09T00:58:50.914Z,92.49
2017-08-09T00:59:50.892Z,92.4
2017-08-09T01:00:50.877Z,92.4
2017-08-09T01:01:50.845Z,92.49
2017-08-09T01:02:50.825Z,92.59
2017-08-09T01:03:50.801Z,92.3
2017-08-09T01:04:50.783Z,92.4
2017-08-09T01:05:50.757Z,92.21
2017-08-09T01:06:50.437Z,92.3
2017-08-09T01:07:50.716Z,92.49
2017-08-09T01:08:50.689Z,92.59
2017-08-09T01:09:50.665Z,92.78
2017-08-09T01:10:50.651Z,93.16
2017-08-09T01:11:50.620Z,93.07
2017-08-09T01:12:50.600Z,92.88
2017-08-09T01:13:50.576Z,93.07
2017-08-09T01:14:50.553Z,92.78
2017-08-09T01:15:50.533Z,92.3
2017-08-09T01:16:50.506Z,92.59
2017-08-09T01:17:50.488Z,92.59
2017-08-09T01:18:50.472Z,92.11
2017-08-09T01:19:50.443Z,92.11
2017-08-09T01:20:50.124Z,92.3
2017-08-09T01:21:50.399Z,92.49
2017-08-09T01:22:50.376Z,92.59
2017-08-09T01:23:50.355Z,92.3
2017-08-09T01:24:50.036Z,92.4
2017-08-09T01:25:50.310Z,92.49
2017-08-09T01:26:50.289Z,92.4
2017-08-09T01:27:49.989Z,92.59
2017-08-09T01:28:49.947Z,92.49
2017-08-09T01:29:50.217Z,92.49
2017-08-09T01:30:49.902Z,92.35
2017-08-09T01:31:49.877Z,92.16
2017-08-09T01:32:49.858Z,92.63
2017-08-09T01:33:49.842Z,92.83
2017-08-09T01:34:49.812Z,91.97
2017-08-09T01:35:50.092Z,92.02
2017-08-09T01:36:50.065Z,92.06
2017-08-09T01:37:50.047Z,92.06
2017-08-09T01:38:49.724Z,91.92
2017-08-09T01:39:49.702Z,91.97
2017-08-09T01:40:49.982Z,92.06
2017-08-09T01:41:49.962Z,92.06
2017-08-09T01:42:49.935Z,92.25
2017-08-09T01:43:49.913Z,92.16
2017-08-09T01:44:49.890Z,92.4
2017-08-09T01:45:49.864Z,92.16
2017-08-09T01:46:49.551Z,92.16
2017-08-09T01:47:49.828Z,92.06
2017-08-09T01:48:49.504Z,92.06
2017-08-09T01:49:49.776Z,92.16
2017-08-09T01:50:49.757Z,92.16
2017-08-09T01:51:49.735Z,92.16
2017-08-09T01:52:49.711Z,92.16
2017-08-09T01:53:49.690Z,92.16
2017-08-09T01:54:49.668Z,92.25
2017-08-09T01:55:49.647Z,92.44
2017-08-09T01:56:49.621Z,91.97
2017-08-09T01:57:49.603Z,92.16
2017-08-09T01:58:49.578Z,92.35
2017-08-09T01:59:49.558Z,92.25
2017-08-09T02:00:49.539Z,91.77
2017-08-09T02:01:49.220Z,91.77
2017-08-09T02:02:49.490Z,91.58
2017-08-09T02:03:49.173Z,91.87
2017-08-09T02:04:49.446Z,91.87
2017-08-09T02:05:49.142Z,91.68
2017-08-09T02:06:49.406Z,91.87
2017-08-09T02:07:49.084Z,91.87
2017-08-09T02:08:49.094Z,91.77
2017-08-09T02:09:49.339Z,91.39
2017-08-09T02:10:49.021Z,91.58
2017-08-09T02:11:49.294Z,91.39
2017-08-09T02:12:48.976Z,91.39
2017-08-09T02:13:48.954Z,91.2
2017-08-09T02:14:49.230Z,91.2
2017-08-09T02:15:49.204Z,91.2
2017-08-09T02:16:49.184Z,91.3
2017-08-09T02:17:49.166Z,90.67
2017-08-09T02:18:49.139Z,90.67
2017-08-09T02:19:49.119Z,90.86
2017-08-09T02:20:49.100Z,90.29
2017-08-09T02:21:49.073Z,90.77
2017-08-09T02:22:49.051Z,90.72
2017-08-09T02:23:49.033Z,89.95
2017-08-09T02:24:48.715Z,90.19
2017-08-09T02:25:48.988Z,90.19
2017-08-09T02:26:48.965Z,89.72
2017-08-09T02:27:48.952Z,89.9
2017-08-09T02:28:48.973Z,90
2017-08-09T02:29:48.899Z,90.09
2017-08-09T02:30:48.886Z,90.09
2017-08-09T02:31:48.857Z,90.09
2017-08-09T02:32:48.845Z,89.76
2017-08-09T02:33:48.814Z,90.29
2017-08-09T02:34:48.794Z,90.09
2017-08-09T02:35:48.777Z,90.39
2017-08-09T02:36:48.752Z,89.62
2017-08-09T02:37:48.730Z,89.62
2017-08-09T02:38:48.707Z,89.62
2017-08-09T02:39:48.684Z,89.67
2017-08-09T02:40:48.661Z,89.58
2017-08-09T02:41:48.641Z,89.76
2017-08-09T02:42:48.621Z,89.76
2017-08-09T02:43:48.599Z,89.67
2017-08-09T02:44:48.576Z,89.58
2017-08-09T02:45:48.256Z,89.58
2017-08-09T02:46:48.783Z,89.76
2017-08-09T02:47:48.507Z,89.81
2017-08-09T02:48:48.484Z,89.23
2017-08-09T02:49:48.168Z,89.33
2017-08-09T02:50:48.147Z,89.33
2017-08-09T02:51:48.423Z,89.48
2017-08-09T02:52:48.399Z,89.33
2017-08-09T02:53:48.375Z,89.23
2017-08-09T02:54:48.061Z,89.62
2017-08-09T02:55:48.058Z,89.23
2017-08-09T02:56:48.317Z,89.33
2017-08-09T02:57:48.291Z,89.43
2017-08-09T02:58:48.267Z,89.43
2017-08-09T02:59:48.248Z,89.43
2017-08-09T03:00:48.227Z,89.23
2017-08-09T03:01:48.203Z,89.43
2017-08-09T03:02:48.178Z,89.23
2017-08-09T03:03:48.159Z,89.19
2017-08-09T03:04:48.138Z,89.38
2017-08-09T03:05:48.113Z,89.38
2017-08-09T03:06:47.795Z,89.58
2017-08-09T03:07:48.074Z,89.86
2017-08-09T03:08:48.051Z,89.86
2017-08-09T03:09:48.027Z,89.76
2017-08-09T03:10:48.005Z,89.76
2017-08-09T03:11:47.985Z,89.67
2017-08-09T03:12:47.963Z,89.86
2017-08-09T03:13:47.939Z,89.67
2017-08-09T03:14:47.919Z,90.24
2017-08-09T03:15:47.897Z,90.24
2017-08-09T03:16:47.577Z,89.76
2017-08-09T03:17:47.855Z,89.95
2017-08-09T03:18:47.832Z,90.05
2017-08-09T03:19:47.809Z,89.76
2017-08-09T03:20:48.037Z,89.95
2017-08-09T03:21:47.767Z,90.05
2017-08-09T03:22:47.743Z,89.86
2017-08-09T03:23:47.721Z,90.15
2017-08-09T03:24:47.698Z,90.05
2017-08-09T03:25:47.676Z,89.95
2017-08-09T03:26:47.657Z,90.15
2017-08-09T03:27:47.636Z,90.15
2017-08-09T03:28:47.614Z,89.95
2017-08-09T03:29:47.295Z,89.95
2017-08-09T03:30:47.574Z,90.24
2017-08-09T03:31:47.550Z,90.05
2017-08-09T03:32:47.526Z,89.95
2017-08-09T03:33:47.207Z,90.15
2017-08-09T03:34:47.185Z,90.15
2017-08-09T03:35:47.462Z,90.15
2017-08-09T03:36:47.440Z,89.95
2017-08-09T03:37:47.416Z,90.05
2017-08-09T03:38:47.392Z,90.15
2017-08-09T03:39:47.386Z,90.24
2017-08-09T03:40:47.350Z,90.15
2017-08-09T03:41:47.330Z,90.34
2017-08-09T03:42:47.306Z,90.15
2017-08-09T03:43:47.291Z,90.15
2017-08-09T03:44:47.261Z,90.05
2017-08-09T03:45:47.242Z,90.05
2017-08-09T03:46:47.222Z,90.19
2017-08-09T03:47:47.201Z,89.95
2017-08-09T03:48:47.178Z,90.15
2017-08-09T03:49:47.155Z,90.15
2017-08-09T03:50:47.133Z,90.05
2017-08-09T03:51:47.114Z,89.72
2017-08-09T03:52:47.091Z,89.76
2017-08-09T03:53:47.069Z,90.82
2017-08-09T03:54:46.748Z,90.15
2017-08-09T03:55:47.029Z,90.82
2017-08-09T03:56:47.006Z,90.19
2017-08-09T03:57:46.685Z,90
2017-08-09T03:58:46.960Z,90.29
2017-08-09T03:59:46.940Z,90.67
2017-08-09T04:00:46.917Z,89.72
2017-08-09T04:01:46.598Z,89.72
2017-08-09T04:02:46.875Z,90.19
2017-08-09T04:03:46.554Z,89.72
2017-08-09T04:04:46.829Z,90.19
2017-08-09T04:05:46.808Z,90.15
2017-08-09T04:06:46.796Z,90
2017-08-09T04:07:46.471Z,90.19
2017-08-09T04:08:46.745Z,90.58
2017-08-09T04:09:46.724Z,89.72
2017-08-09T04:10:46.712Z,90.29
2017-08-09T04:11:46.680Z,90.29
2017-08-09T04:12:46.656Z,90.19
2017-08-09T04:13:46.342Z,90.19
2017-08-09T04:14:46.318Z,90
2017-08-09T04:15:46.594Z,90
2017-08-09T04:16:46.574Z,90.39
2017-08-09T04:17:46.552Z,90.39
2017-08-09T04:18:46.530Z,90.09
2017-08-09T04:19:46.210Z,90.09
2017-08-09T04:20:46.739Z,90.19
2017-08-09T04:21:46.466Z,90.19
2017-08-09T04:22:46.442Z,90.19
2017-08-09T04:23:46.124Z,90.29
2017-08-09T04:24:46.102Z,90.19
2017-08-09T04:25:46.380Z,90.19
2017-08-09T04:26:46.059Z,90.29
2017-08-09T04:27:46.337Z,90.29
2017-08-09T04:28:46.319Z,90.39
2017-08-09T04:29:46.294Z,90.19
2017-08-09T04:30:46.272Z,89.9
2017-08-09T04:31:46.248Z,90.77
2017-08-09T04:32:46.228Z,90.39
2017-08-09T04:33:45.912Z,90.96
2017-08-09T04:34:46.190Z,90.77
2017-08-09T04:35:46.188Z,91.34
2017-08-09T04:36:46.145Z,91.34
2017-08-09T04:37:46.125Z,91.72
2017-08-09T04:38:46.101Z,92.4
2017-08-09T04:39:46.082Z,92.21
2017-08-09T04:40:46.056Z,92.58
2017-08-09T04:41:46.036Z,92.97
2017-08-09T04:42:46.015Z,92.87
2017-08-09T04:43:45.989Z,93.35
2017-08-09T04:44:45.970Z,92.92
2017-08-09T04:45:45.947Z,93.45
2017-08-09T04:46:45.944Z,93.83
2017-08-09T04:47:45.904Z,93.5
2017-08-09T04:48:45.885Z,93.54
2017-08-09T04:49:45.860Z,94.12
2017-08-09T04:50:45.844Z,93.93
2017-08-09T04:51:45.816Z,94.31
2017-08-09T04:52:45.799Z,94.02
2017-08-09T04:53:45.775Z,94.55
2017-08-09T04:54:45.754Z,94.36
2017-08-09T04:55:45.731Z,93.93
2017-08-09T04:56:45.713Z,93.93
2017-08-09T04:57:45.688Z,93.83
2017-08-09T04:58:45.668Z,94.31
2017-08-09T04:59:45.640Z,94.02
2017-08-09T05:00:45.622Z,93.93
2017-08-09T05:01:45.599Z,94.31
2017-08-09T05:02:45.287Z,94.5
2017-08-09T05:03:45.555Z,94.12
2017-08-09T05:04:45.536Z,94.4
2017-08-09T05:05:45.517Z,94.12
2017-08-09T05:06:45.491Z,94.02
2017-08-09T05:07:45.471Z,94.21
2017-08-09T05:08:45.451Z,94.31
2017-08-09T05:09:45.130Z,93.93
2017-08-09T05:10:45.404Z,93.93
2017-08-09T05:11:45.386Z,94.12
2017-08-09T05:12:45.364Z,94.12
2017-08-09T05:13:45.342Z,93.93
2017-08-09T05:14:45.321Z,94.21
2017-08-09T05:15:45.299Z,94.12
2017-08-09T05:16:45.279Z,94.02
2017-08-09T05:17:45.258Z,94.21
2017-08-09T05:18:45.235Z,94.31
2017-08-09T05:19:45.212Z,94.12
2017-08-09T05:20:45.194Z,94.21
2017-08-09T05:21:45.175Z,93.93
2017-08-09T05:22:45.149Z,93.93
2017-08-09T05:23:45.130Z,94.12
2017-08-09T05:24:45.134Z,93.64
2017-08-09T05:25:45.085Z,93.64
2017-08-09T05:26:45.071Z,93.26
2017-08-09T05:27:44.748Z,93.45
2017-08-09T05:28:45.022Z,93.45
2017-08-09T05:29:45.001Z,92.87
2017-08-09T05:30:44.982Z,93.16
2017-08-09T05:31:44.963Z,93.35
2017-08-09T05:32:44.941Z,92.87
2017-08-09T05:33:44.627Z,93.26
2017-08-09T05:34:44.906Z,92.63
2017-08-09T05:35:44.882Z,91.86
2017-08-09T05:36:44.857Z,92.44
2017-08-09T05:37:44.837Z,92.21
2017-08-09T05:38:44.816Z,91.92
2017-08-09T05:39:44.794Z,91.53
2017-08-09T05:40:44.488Z,90.86
2017-08-09T05:41:44.455Z,91.25
2017-08-09T05:42:44.434Z,90.91
2017-08-09T05:43:44.709Z,91.29
2017-08-09T05:44:44.691Z,90.96
2017-08-09T05:45:44.667Z,90.96
2017-08-09T05:46:44.350Z,90.29
2017-08-09T05:47:44.624Z,90.58
2017-08-09T05:48:44.605Z,90.86
2017-08-09T05:49:44.586Z,90.58
2017-08-09T05:50:44.573Z,90.09
2017-08-09T05:51:44.543Z,90.09
2017-08-09T05:52:44.522Z,90
2017-08-09T05:53:44.201Z,89.81
2017-08-09T05:54:44.181Z,90
2017-08-09T05:55:44.161Z,90
2017-08-09T05:56:44.140Z,90
2017-08-09T05:57:44.117Z,89.62
2017-08-09T05:58:44.099Z,89.81
2017-08-09T05:59:44.373Z,89.62
2017-08-09T06:00:44.308Z,89.52
2017-08-09T06:01:44.457Z,89.43
2017-08-09T06:02:44.772Z,89.18
2017-08-09T06:03:44.290Z,88.99
2017-08-09T06:04:44.229Z,88.61
2017-08-09T06:05:45.069Z,88.61
2017-08-09T06:06:44.446Z,88.13
2017-08-09T06:07:44.207Z,87.74
2017-08-09T06:08:44.185Z,87.94
2017-08-09T06:09:44.166Z,88.03
2017-08-09T06:10:44.148Z,87.08
2017-08-09T06:11:44.128Z,87.46
2017-08-09T06:12:44.578Z,86.88
2017-08-09T06:13:44.112Z,87.17
2017-08-09T06:14:44.065Z,86.5
2017-08-09T06:15:44.042Z,86.88
2017-08-09T06:16:44.023Z,86.98
2017-08-09T06:17:44.001Z,85.93
2017-08-09T06:18:43.985Z,86.41
2017-08-09T06:19:43.966Z,86.31
2017-08-09T06:20:43.939Z,86.12
2017-08-09T06:21:43.923Z,86.31
2017-08-09T06:22:43.907Z,86.02
2017-08-09T06:23:43.883Z,85.74
2017-08-09T06:24:43.866Z,85.25
2017-08-09T06:25:43.841Z,84.91
2017-08-09T06:26:43.820Z,84.68
2017-08-09T06:27:43.814Z,83.82
2017-08-09T06:28:43.778Z,83.92
2017-08-09T06:29:43.804Z,83.53
2017-08-09T06:30:43.444Z,82.96
2017-08-09T06:31:43.727Z,83.44
2017-08-09T06:32:43.402Z,83.44
2017-08-09T06:33:43.679Z,83.44
2017-08-09T06:34:43.659Z,83.15
2017-08-09T06:35:43.645Z,83.15
2017-08-09T06:36:43.740Z,83.25
2017-08-09T06:37:43.598Z,83.05
2017-08-09T06:38:43.580Z,83.05
2017-08-09T06:39:43.557Z,82.96
2017-08-09T06:40:43.537Z,83.05
2017-08-09T06:41:43.519Z,83.05
2017-08-09T06:42:43.499Z,83.25
2017-08-09T06:43:43.480Z,83.34
2017-08-09T06:44:43.457Z,83.53
2017-08-09T06:45:43.436Z,82.76
2017-08-09T06:46:43.418Z,82.86
2017-08-09T06:47:43.397Z,82.38
2017-08-09T06:48:43.378Z,82.48
2017-08-09T06:49:43.354Z,82.57
2017-08-09T06:50:43.337Z,82.09
2017-08-09T06:51:43.319Z,82.09
2017-08-09T06:52:43.346Z,81.9
2017-08-09T06:53:43.274Z,81.62
2017-08-09T06:54:43.255Z,81.81
2017-08-09T06:55:43.235Z,81.81
2017-08-09T06:56:43.215Z,81.81
2017-08-09T06:57:43.198Z,81.04
2017-08-09T06:58:43.225Z,81.33
2017-08-09T06:59:43.253Z,81.23
2017-08-09T07:00:42.999Z,81.04
2017-08-09T07:01:43.113Z,80.79
2017-08-09T07:02:43.095Z,81.04
2017-08-09T07:03:43.077Z,80.99
2017-08-09T07:04:43.057Z,81.13
2017-08-09T07:05:43.034Z,80.94
2017-08-09T07:06:43.016Z,80.85
2017-08-09T07:07:43.341Z,81.04
2017-08-09T07:08:42.973Z,80.66
2017-08-09T07:09:42.956Z,80.66
2017-08-09T07:10:43.213Z,80.89
2017-08-09T07:11:42.916Z,81.18
2017-08-09T07:12:43.270Z,80.32
2017-08-09T07:13:42.881Z,80.03
2017-08-09T07:14:42.857Z,79.83
2017-08-09T07:15:42.842Z,79.83
2017-08-09T07:16:42.824Z,79.64
2017-08-09T07:17:42.808Z,79.64
2017-08-09T07:18:42.785Z,79.68
2017-08-09T07:19:42.769Z,79.3
2017-08-09T07:20:43.359Z,78.82
2017-08-09T07:21:42.731Z,79.01
2017-08-09T07:22:42.712Z,78.82
2017-08-09T07:23:42.749Z,78.63
2017-08-09T07:24:42.678Z,77.29
2017-08-09T07:25:42.662Z,76.62
2017-08-09T07:26:42.648Z,76.17
2017-08-09T07:27:42.643Z,76.37
2017-08-09T07:28:42.613Z,75.7
2017-08-09T07:29:42.595Z,75.21
2017-08-09T07:30:42.581Z,74.54
2017-08-09T07:31:42.564Z,74.26
2017-08-09T07:32:42.548Z,73
2017-08-09T07:33:42.534Z,73.2
2017-08-09T07:34:42.518Z,72.81
2017-08-09T07:35:42.507Z,72.85
2017-08-09T07:36:42.488Z,72.56
2017-08-09T07:37:42.474Z,71.8
2017-08-09T07:38:42.460Z,71.55
2017-08-09T07:39:42.442Z,71.51
2017-08-09T07:40:42.138Z,71.25
2017-08-09T07:41:42.157Z,70.97
2017-08-09T07:42:42.457Z,71.16
2017-08-09T07:43:42.383Z,71.25
2017-08-09T07:44:42.368Z,71.25
2017-08-09T07:45:42.353Z,70.2
2017-08-09T07:46:42.345Z,70.1
2017-08-09T07:47:42.324Z,69.72
2017-08-09T07:48:42.309Z,69.14
2017-08-09T07:49:42.292Z,68.47
2017-08-09T07:50:42.278Z,67.99
2017-08-09T07:51:42.263Z,68.08
2017-08-09T07:52:42.249Z,68.28
2017-08-09T07:53:42.237Z,68.08
2017-08-09T07:54:42.214Z,67.99
2017-08-09T07:55:42.201Z,68.08
2017-08-09T07:56:42.184Z,67.74
2017-08-09T07:57:42.171Z,67.93
2017-08-09T07:58:42.155Z,67.35
2017-08-09T07:59:42.142Z,67.07
2017-08-09T08:00:42.126Z,66.97
2017-08-09T08:01:42.115Z,66.87
2017-08-09T08:02:42.100Z,67.07
2017-08-09T08:03:42.081Z,66.77
2017-08-09T08:04:42.066Z,67.25
2017-08-09T08:05:42.051Z,66.39
2017-08-09T08:06:42.036Z,65.72
2017-08-09T08:07:41.724Z,65.81
2017-08-09T08:08:42.009Z,65.62
2017-08-09T08:09:41.691Z,65.53
2017-08-09T08:10:41.678Z,65.53
2017-08-09T08:11:41.959Z,64.79
2017-08-09T08:12:41.648Z,64.98
2017-08-09T08:13:41.930Z,64.5
2017-08-09T08:14:41.915Z,64.31
2017-08-09T08:15:41.898Z,64.31
2017-08-09T08:16:41.690Z,64.02
2017-08-09T08:17:41.573Z,64.02
2017-08-09T08:18:42.257Z,63.73
2017-08-09T08:19:41.560Z,63.35
2017-08-09T08:20:41.888Z,63.73
2017-08-09T08:21:41.814Z,63.45
2017-08-09T08:22:41.797Z,63.79
2017-08-09T08:23:41.791Z,63.7
2017-08-09T08:24:41.763Z,64.47
2017-08-09T08:25:41.751Z,64.18
2017-08-09T08:26:41.741Z,63.99
2017-08-09T08:27:41.726Z,63.99
2017-08-09T08:28:41.707Z,63.6
2017-08-09T08:29:41.691Z,63.89
2017-08-09T08:30:41.677Z,63.6
2017-08-09T08:31:41.657Z,63.89
2017-08-09T08:32:41.643Z,63.51
2017-08-09T08:33:41.627Z,63.79
2017-08-09T08:34:41.612Z,63.73
2017-08-09T08:35:41.601Z,63.73
2017-08-09T08:36:41.288Z,63.25
2017-08-09T08:37:41.576Z,63.54
2017-08-09T08:38:41.552Z,63.54
2017-08-09T08:39:41.534Z,62.68
2017-08-09T08:40:41.521Z,62.38
2017-08-09T08:41:41.519Z,62.48
2017-08-09T08:42:41.494Z,61.84
2017-08-09T08:43:41.566Z,61.36
2017-08-09T08:44:41.466Z,60.3
2017-08-09T08:45:41.481Z,60.33
2017-08-09T08:46:41.443Z,60.52
2017-08-09T08:47:41.425Z,59.75
2017-08-09T08:48:41.414Z,59.75
2017-08-09T08:49:42.300Z,59.94
2017-08-09T08:50:41.383Z,59.75
2017-08-09T08:51:41.072Z,59.37
2017-08-09T08:52:41.060Z,58.89
2017-08-09T08:53:41.343Z,58.34
2017-08-09T08:54:41.334Z,58.08
2017-08-09T08:55:41.316Z,57.69
2017-08-09T08:56:41.304Z,57.67
2017-08-09T08:57:41.296Z,57.67
2017-08-09T08:58:41.278Z,57.76
2017-08-09T08:59:41.270Z,58.6
2017-08-09T09:00:41.255Z,58.4
2017-08-09T09:01:41.244Z,58.5
2017-08-09T09:02:41.228Z,58.02
2017-08-09T09:03:41.219Z,57.09
2017-08-09T09:04:40.905Z,56.25
2017-08-09T09:05:40.901Z,55.19
2017-08-09T09:06:40.883Z,54.83
2017-08-09T09:07:41.164Z,54.18
2017-08-09T09:08:41.155Z,53.99
2017-08-09T09:09:41.146Z,53.51
2017-08-09T09:10:41.138Z,52.76
2017-08-09T09:11:41.124Z,52.21
2017-08-09T09:12:41.107Z,51.34
2017-08-09T09:13:41.095Z,51.25
2017-08-09T09:14:41.094Z,51.34
2017-08-09T09:15:41.074Z,51.15
2017-08-09T09:16:41.061Z,50.96
2017-08-09T09:17:41.054Z,51.32
2017-08-09T09:18:41.037Z,52.16
2017-08-09T09:19:41.473Z,52.16
2017-08-09T09:20:41.203Z,52.45
2017-08-09T09:21:41.009Z,53.03
2017-08-09T09:22:41.281Z,52.73
2017-08-09T09:23:41.169Z,52.35
2017-08-09T09:24:40.796Z,51.48
2017-08-09T09:25:40.963Z,50.84
2017-08-09T09:26:40.965Z,50.96
2017-08-09T09:27:41.040Z,50.21
2017-08-09T09:28:40.927Z,49.37
2017-08-09T09:29:40.914Z,49.07
2017-08-09T09:30:40.906Z,48.49
2017-08-09T09:31:40.892Z,47.84
2017-08-09T09:32:40.884Z,46.51
2017-08-09T09:33:40.881Z,45.86
2017-08-09T09:34:40.862Z,44.62
2017-08-09T09:35:40.872Z,43.96
2017-08-09T09:36:40.845Z,43.38
2017-08-09T09:37:40.832Z,42.88
2017-08-09T09:38:40.827Z,42.03
2017-08-09T09:39:40.817Z,41.74
2017-08-09T09:40:40.807Z,42.22
2017-08-09T09:41:40.797Z,42.49
2017-08-09T09:42:41.238Z,42.59
2017-08-09T09:43:41.359Z,42.2
2017-08-09T09:44:40.900Z,42.2
2017-08-09T09:45:41.064Z,41.45
2017-08-09T09:46:40.903Z,41.06
2017-08-09T09:47:41.158Z,41.35
2017-08-09T09:48:40.737Z,42.03
2017-08-09T09:49:40.430Z,42.03
2017-08-09T09:50:40.762Z,41.25
2017-08-09T09:51:40.711Z,42
2017-08-09T09:52:40.706Z,42.3
2017-08-09T09:53:40.691Z,42.2
2017-08-09T09:54:40.684Z,42.86
2017-08-09T09:55:41.016Z,43.51
2017-08-09T09:56:40.665Z,43.78
2017-08-09T09:57:40.674Z,44.26
2017-08-09T09:58:40.440Z,45.31
2017-08-09T09:59:40.641Z,45.31
2017-08-09T10:00:40.704Z,46.15
2017-08-09T10:01:40.626Z,46.42
2017-08-09T10:02:40.974Z,47
2017-08-09T10:03:40.897Z,47.85
2017-08-09T10:04:40.774Z,48.81
2017-08-09T10:05:40.498Z,48.88
2017-08-09T10:06:40.609Z,48.88
2017-08-09T10:07:40.826Z,49.34
2017-08-09T10:08:40.594Z,49.73
2017-08-09T10:09:40.547Z,49.24
2017-08-09T10:10:40.757Z,49.27
2017-08-09T10:11:40.882Z,49.65
2017-08-09T10:12:41.066Z,49.94
2017-08-09T10:13:40.735Z,50.3
2017-08-09T10:14:40.493Z,50.59
2017-08-09T10:15:40.476Z,50.88
2017-08-09T10:16:40.462Z,51.07
2017-08-09T10:17:40.453Z,50.98
2017-08-09T10:18:40.472Z,51.26
2017-08-09T10:19:40.436Z,50.76
2017-08-09T10:20:40.416Z,50.88
2017-08-09T10:21:40.433Z,50.88
2017-08-09T10:22:40.890Z,51.07
2017-08-09T10:23:41.031Z,51.17
2017-08-09T10:24:40.363Z,50.59
2017-08-09T10:25:40.462Z,50.59
2017-08-09T10:26:40.471Z,50.49
2017-08-09T10:27:41.284Z,50.71
2017-08-09T10:28:40.343Z,49.65
2017-08-09T10:29:40.839Z,49.29
2017-08-09T10:30:40.574Z,49.29
2017-08-09T10:31:40.281Z,48.93
2017-08-09T10:32:40.269Z,49.02
2017-08-09T10:33:40.261Z,48.25
2017-08-09T10:34:40.247Z,47.77
2017-08-09T10:35:40.237Z,48.16
2017-08-09T10:36:39.930Z,48.13
2017-08-09T10:37:40.214Z,48.23
2017-08-09T10:38:40.253Z,48.52
2017-08-09T10:39:40.193Z,48.33
2017-08-09T10:40:39.883Z,47.75
2017-08-09T10:41:40.171Z,48.03
2017-08-09T10:42:40.201Z,48.23
2017-08-09T10:43:40.155Z,48.23
2017-08-09T10:44:39.868Z,47.94
2017-08-09T10:45:40.855Z,47.94
2017-08-09T10:46:40.136Z,47.55
2017-08-09T10:47:39.809Z,48.13
2017-08-09T10:48:39.810Z,48.01
2017-08-09T10:49:40.138Z,48.11
2017-08-09T10:50:40.061Z,48.01
2017-08-09T10:51:39.753Z,48.3
2017-08-09T10:52:40.036Z,48.11
2017-08-09T10:53:39.988Z,47.34
2017-08-09T10:54:40.015Z,47.65
2017-08-09T10:55:39.702Z,46.97
2017-08-09T10:56:39.691Z,46.4
2017-08-09T10:57:39.681Z,46.56
2017-08-09T10:58:39.962Z,46.69
2017-08-09T10:59:39.948Z,46.49
2017-08-09T11:00:39.941Z,46.2
2017-08-09T11:01:39.926Z,46.69
2017-08-09T11:02:39.920Z,46.4
2017-08-09T11:03:39.900Z,46.4
2017-08-09T11:04:39.951Z,46.49
2017-08-09T11:05:39.883Z,46.59
2017-08-09T11:06:39.862Z,46.49
2017-08-09T11:07:39.852Z,46.3
2017-08-09T11:08:39.839Z,46.49
2017-08-09T11:09:39.529Z,46.49
2017-08-09T11:10:39.516Z,46.59
2017-08-09T11:11:39.502Z,46.4
2017-08-09T11:12:39.785Z,46.3
2017-08-09T11:13:39.773Z,46.66
2017-08-09T11:14:39.763Z,46.56
2017-08-09T11:15:39.449Z,47.44
2017-08-09T11:16:39.971Z,47.41
2017-08-09T11:17:39.670Z,47.31
2017-08-09T11:18:39.412Z,47.41
2017-08-09T11:19:39.692Z,47.12
2017-08-09T11:20:39.389Z,47.34
2017-08-09T11:21:39.370Z,47.53
2017-08-09T11:22:39.650Z,47.14
2017-08-09T11:23:39.637Z,47.34
2017-08-09T11:24:39.329Z,46.69
2017-08-09T11:25:39.314Z,46.97
2017-08-09T11:26:39.598Z,47.55
2017-08-09T11:27:39.602Z,47.44
2017-08-09T11:28:39.570Z,47.53
2017-08-09T11:29:39.554Z,47.07
2017-08-09T11:30:39.541Z,46.49
2017-08-09T11:31:39.228Z,46.78
2017-08-09T11:32:39.217Z,47.55
2017-08-09T11:33:39.502Z,47.07
2017-08-09T11:34:39.489Z,46.69
2017-08-09T11:35:39.479Z,46.49
2017-08-09T11:36:39.461Z,46.88
2017-08-09T11:37:39.441Z,46.4
2017-08-09T11:38:39.429Z,46.69
2017-08-09T11:39:39.417Z,46.49
2017-08-09T11:40:39.401Z,46.2
2017-08-09T11:41:39.387Z,46.49
2017-08-09T11:42:39.372Z,46.11
2017-08-09T11:43:39.360Z,45.62
2017-08-09T11:44:39.051Z,45.72
2017-08-09T11:45:39.347Z,45.45
2017-08-09T11:46:39.317Z,45.07
2017-08-09T11:47:39.302Z,45.26
2017-08-09T11:48:39.293Z,44.9
2017-08-09T11:49:39.276Z,44.32
2017-08-09T11:50:39.263Z,44.12
2017-08-09T11:51:39.251Z,44.03
2017-08-09T11:52:39.237Z,43.74
2017-08-09T11:53:39.225Z,44.12
2017-08-09T11:54:39.211Z,44.49
2017-08-09T11:55:39.227Z,44.39
2017-08-09T11:56:38.894Z,44.97
2017-08-09T11:57:39.175Z,45.26
2017-08-09T11:58:39.163Z,45.34
2017-08-09T11:59:39.144Z,45.43
2017-08-09T12:00:39.407Z,45.24
2017-08-09T12:01:38.820Z,45.34
2017-08-09T12:02:39.107Z,45.34
2017-08-09T12:03:38.794Z,45.65
2017-08-09T12:04:39.077Z,45.45
2017-08-09T12:05:39.062Z,45.36
2017-08-09T12:06:39.051Z,45.45
2017-08-09T12:07:39.037Z,45.75
2017-08-09T12:08:39.023Z,45.75
2017-08-09T12:09:39.008Z,45.84
2017-08-09T12:10:38.994Z,45.84
2017-08-09T12:11:39.203Z,45.55
2017-08-09T12:12:38.678Z,45.26
2017-08-09T12:13:38.958Z,45.55
2017-08-09T12:14:38.977Z,45.45
2017-08-09T12:15:38.930Z,45.17
2017-08-09T12:16:38.914Z,44.87
2017-08-09T12:17:38.900Z,44.7
2017-08-09T12:18:38.890Z,43.64
2017-08-09T12:19:38.874Z,43.45
2017-08-09T12:20:38.866Z,42.79
2017-08-09T12:21:38.848Z,43.08
2017-08-09T12:22:38.839Z,42.31
2017-08-09T12:23:38.819Z,42.31
2017-08-09T12:24:38.808Z,42.1
2017-08-09T12:25:38.494Z,42.29
2017-08-09T12:26:38.662Z,42.19
2017-08-09T12:27:38.771Z,41.91
2017-08-09T12:28:38.640Z,42
2017-08-09T12:29:38.733Z,41.91
2017-08-09T12:30:38.721Z,41.91
2017-08-09T12:31:38.706Z,42.02
2017-08-09T12:32:38.397Z,42.21
2017-08-09T12:33:38.680Z,41.73
2017-08-09T12:34:38.666Z,41.73
2017-08-09T12:35:38.655Z,41.54
2017-08-09T12:36:38.346Z,41.35
2017-08-09T12:37:38.624Z,41.17
2017-08-09T12:38:38.612Z,40.88
2017-08-09T12:39:38.597Z,40.2
2017-08-09T12:40:38.584Z,40.23
2017-08-09T12:41:38.572Z,40.61
2017-08-09T12:42:38.560Z,40.23
2017-08-09T12:43:38.547Z,40.03
2017-08-09T12:44:38.667Z,41.08
2017-08-09T12:45:38.220Z,40.78
2017-08-09T12:46:38.500Z,41.15
2017-08-09T12:47:38.496Z,41.25
2017-08-09T12:48:38.654Z,41.05
2017-08-09T12:49:38.465Z,41.15
2017-08-09T12:50:38.154Z,41.08
2017-08-09T12:51:38.437Z,41.08
2017-08-09T12:52:38.127Z,40.98
2017-08-09T12:53:38.113Z,40.61
2017-08-09T12:54:38.103Z,40.13
2017-08-09T12:55:38.092Z,40.03
2017-08-09T12:56:38.076Z,39.76